createdAt,value
2023-05-14T00:02:24.142Z,7.67
2023-05-14T00:04:50.702Z,7.65
2023-05-14T00:07:17.128Z,7.76
2023-05-14T00:09:43.577Z,7.80
2023-05-14T00:12:10.058Z,7.85
2023-05-14T00:14:36.421Z,7.76
2023-05-14T00:17:02.805Z,7.83
2023-05-14T00:19:29.360Z,7.90
2023-05-14T00:21:55.758Z,7.90
2023-05-14T00:24:22.225Z,7.93
2023-05-14T00:26:48.735Z,7.94
2023-05-14T00:29:15.096Z,7.98
2023-05-14T00:31:41.511Z,7.98
2023-05-14T00:34:08.339Z,7.96
2023-05-14T00:36:34.801Z,7.89
2023-05-14T00:39:01.232Z,7.91
2023-05-14T00:41:27.694Z,8.04
2023-05-14T00:43:54.159Z,8.04
2023-05-14T00:46:20.639Z,8.04
2023-05-14T00:48:47.135Z,7.97
2023-05-14T00:51:13.526Z,8.01
2023-05-14T00:53:39.909Z,8.02
2023-05-14T00:56:06.410Z,7.98
2023-05-14T00:58:32.934Z,8.00
2023-05-14T01:00:59.685Z,8.09
2023-05-14T01:03:26.769Z,8.07
2023-05-14T01:06:08.668Z,8.11
2023-05-14T01:08:35.222Z,8.11
2023-05-14T01:11:09.157Z,8.16
2023-05-14T01:13:55.882Z,8.10
2023-05-14T01:16:22.568Z,8.14
2023-05-14T01:18:49.103Z,8.07
2023-05-14T01:21:24.026Z,8.11
2023-05-14T01:23:50.458Z,8.21
2023-05-14T01:26:16.834Z,8.12
2023-05-14T01:28:43.336Z,8.12
2023-05-14T01:31:12.069Z,8.15
2023-05-14T01:33:38.596Z,8.18
2023-05-14T01:36:05.144Z,8.15
2023-05-14T01:38:31.581Z,8.19
2023-05-14T01:40:58.063Z,8.24
2023-05-14T01:43:24.575Z,8.25
2023-05-14T01:45:51.119Z,8.24
2023-05-14T01:48:17.731Z,8.26
2023-05-14T01:50:44.316Z,8.22
2023-05-14T01:53:10.875Z,8.23
2023-05-14T01:55:37.357Z,8.19
2023-05-14T01:58:03.848Z,8.24
2023-05-14T02:00:30.408Z,8.20
2023-05-14T02:02:56.971Z,8.15
2023-05-14T02:05:23.558Z,8.18
2023-05-14T02:07:50.168Z,8.21
2023-05-14T02:10:16.655Z,8.16
2023-05-14T02:12:43.093Z,8.23
2023-05-14T02:15:09.833Z,8.26
2023-05-14T02:17:38.361Z,8.16
2023-05-14T02:20:05.139Z,8.23
2023-05-14T02:22:31.561Z,8.26
2023-05-14T02:24:58.036Z,8.18
2023-05-14T02:27:24.614Z,8.23
2023-05-14T02:29:51.062Z,8.22
2023-05-14T02:32:17.625Z,8.11
2023-05-14T02:34:44.220Z,8.09
2023-05-14T02:37:11.022Z,8.08
2023-05-14T02:39:37.459Z,8.19
2023-05-14T02:42:03.946Z,8.14
2023-05-14T02:44:30.459Z,8.00
2023-05-14T02:46:56.856Z,8.09
2023-05-14T02:49:23.392Z,8.05
2023-05-14T02:51:49.894Z,7.99
2023-05-14T02:54:16.299Z,7.98
2023-05-14T02:56:42.740Z,8.01
2023-05-14T02:59:09.096Z,7.98
2023-05-14T03:01:36.026Z,7.87
2023-05-14T03:04:02.848Z,7.77
2023-05-14T03:06:29.273Z,7.79
2023-05-14T03:08:55.726Z,7.58
2023-05-14T03:11:22.219Z,7.58
2023-05-14T03:13:48.632Z,7.41
2023-05-14T03:16:15.363Z,7.47
2023-05-14T03:18:41.906Z,7.30
2023-05-14T03:21:08.352Z,7.33
2023-05-14T03:23:34.943Z,7.22
2023-05-14T03:26:02.024Z,7.18
2023-05-14T03:28:28.513Z,7.27
2023-05-14T03:30:55.256Z,7.19
2023-05-14T03:33:21.931Z,6.96
2023-05-14T03:35:48.463Z,6.92
2023-05-14T03:38:14.906Z,6.92
2023-05-14T03:40:41.382Z,6.89
2023-05-14T03:43:08.049Z,6.85
2023-05-14T03:45:34.916Z,6.75
2023-05-14T03:48:01.470Z,6.64
2023-05-14T03:50:28.058Z,6.62
2023-05-14T03:52:54.523Z,6.60
2023-05-14T03:55:21.111Z,6.59
2023-05-14T03:57:50.491Z,6.60
2023-05-14T04:00:16.974Z,6.57
2023-05-14T04:02:43.866Z,6.52
2023-05-14T04:05:10.510Z,6.47
2023-05-14T04:07:37.031Z,6.46
2023-05-14T04:10:04.715Z,6.46
2023-05-14T04:12:31.303Z,6.47
2023-05-14T04:14:58.050Z,6.53
2023-05-14T04:17:24.867Z,6.36
2023-05-14T04:19:51.407Z,6.26
2023-05-14T04:22:17.785Z,6.27
2023-05-14T04:24:44.267Z,6.29
2023-05-14T04:27:10.635Z,6.39
2023-05-14T04:29:37.085Z,6.41
2023-05-14T04:32:03.967Z,6.50
2023-05-14T04:34:30.547Z,6.53
2023-05-14T04:36:57.025Z,6.60
2023-05-14T04:39:23.439Z,6.69
2023-05-14T04:41:49.871Z,6.78
2023-05-14T04:44:16.219Z,6.89
2023-05-14T04:46:42.679Z,6.94
2023-05-14T04:49:09.047Z,7.04
2023-05-14T04:51:35.415Z,7.18
2023-05-14T04:54:01.894Z,7.33
2023-05-14T04:56:28.388Z,7.35
2023-05-14T04:58:54.768Z,7.50
2023-05-14T05:01:21.226Z,7.64
2023-05-14T05:03:47.865Z,7.78
2023-05-14T05:06:14.327Z,7.88
2023-05-14T05:08:40.803Z,8.05
2023-05-14T05:11:07.293Z,8.23
2023-05-14T05:13:33.678Z,8.20
2023-05-14T05:16:00.168Z,8.22
2023-05-14T05:18:26.637Z,8.28
2023-05-14T05:20:53.117Z,8.39
2023-05-14T05:23:19.619Z,8.37
2023-05-14T05:25:45.980Z,8.57
2023-05-14T05:28:12.470Z,8.63
2023-05-14T05:30:39.561Z,8.86
2023-05-14T05:33:06.042Z,8.95
2023-05-14T05:35:32.471Z,8.91
2023-05-14T05:38:01.361Z,8.97
2023-05-14T05:40:28.315Z,9.05
2023-05-14T05:42:54.786Z,9.13
2023-05-14T05:45:21.274Z,9.18
2023-05-14T05:47:47.825Z,9.33
2023-05-14T05:50:14.473Z,9.33
2023-05-14T05:52:40.910Z,9.33
2023-05-14T05:55:07.572Z,9.37
2023-05-14T05:57:34.010Z,9.44
2023-05-14T06:00:00.464Z,9.46
2023-05-14T06:02:27.067Z,9.62
2023-05-14T06:04:53.723Z,9.65
2023-05-14T06:07:20.312Z,9.73
2023-05-14T06:09:46.765Z,9.75
2023-05-14T06:12:13.148Z,9.80
2023-05-14T06:14:39.640Z,9.88
2023-05-14T06:17:06.004Z,9.87
2023-05-14T06:19:32.465Z,9.99
2023-05-14T06:21:59.015Z,10.02
2023-05-14T06:24:25.421Z,10.13
2023-05-14T06:26:51.819Z,10.19
2023-05-14T06:29:18.317Z,10.27
2023-05-14T06:31:44.685Z,10.42
2023-05-14T06:34:11.217Z,10.43
2023-05-14T06:36:37.698Z,10.56
2023-05-14T06:39:04.096Z,10.68
2023-05-14T06:41:30.551Z,10.78
2023-05-14T06:43:57.039Z,10.85
2023-05-14T06:46:23.516Z,10.79
2023-05-14T06:48:50.064Z,10.72
2023-05-14T06:51:16.565Z,10.82
2023-05-14T06:53:42.992Z,10.89
2023-05-14T06:56:09.430Z,10.43
2023-05-14T06:58:35.961Z,10.63
2023-05-14T07:01:02.484Z,11.08
2023-05-14T07:03:28.982Z,11.16
2023-05-14T07:05:55.482Z,11.58
2023-05-14T07:08:21.878Z,11.85
2023-05-14T07:10:48.343Z,11.93
2023-05-14T07:13:14.841Z,11.65
2023-05-14T07:15:41.532Z,11.97
2023-05-14T07:18:07.956Z,12.33
2023-05-14T07:20:34.556Z,12.13
2023-05-14T07:23:00.973Z,12.12
2023-05-14T07:25:27.364Z,12.16
2023-05-14T07:27:53.803Z,12.10
2023-05-14T07:30:20.607Z,12.05
2023-05-14T07:32:47.208Z,12.08
2023-05-14T07:35:14.066Z,12.23
2023-05-14T07:37:40.529Z,11.80
2023-05-14T07:40:07.250Z,12.10
2023-05-14T07:42:36.416Z,12.58
2023-05-14T07:45:04.150Z,12.12
2023-05-14T07:47:30.817Z,12.72
2023-05-14T07:49:57.427Z,13.38
2023-05-14T07:52:23.985Z,13.91
2023-05-14T07:54:50.896Z,14.12
2023-05-14T07:57:17.949Z,14.41
2023-05-14T07:59:44.344Z,13.61
2023-05-14T08:02:10.765Z,13.51
2023-05-14T08:04:37.577Z,14.50
2023-05-14T08:07:04.104Z,14.35
2023-05-14T08:09:30.583Z,14.36
2023-05-14T08:11:57.099Z,13.82
2023-05-14T08:14:23.505Z,13.85
2023-05-14T08:16:49.992Z,13.84
2023-05-14T08:19:16.739Z,14.21
2023-05-14T08:21:43.693Z,13.78
2023-05-14T08:24:10.182Z,14.04
2023-05-14T08:26:36.762Z,14.44
2023-05-14T08:29:03.177Z,14.28
2023-05-14T08:31:29.691Z,14.16
2023-05-14T08:33:56.306Z,13.84
2023-05-14T08:36:22.793Z,13.49
2023-05-14T08:38:49.276Z,13.63
2023-05-14T08:41:15.705Z,13.89
2023-05-14T08:43:44.323Z,14.20
2023-05-14T08:46:10.769Z,13.84
2023-05-14T08:48:37.222Z,13.94
2023-05-14T08:51:03.704Z,14.20
2023-05-14T08:53:30.121Z,14.29
2023-05-14T08:55:56.532Z,14.38
2023-05-14T08:58:23.001Z,14.57
2023-05-14T09:00:49.548Z,14.65
2023-05-14T09:03:16.118Z,15.33
2023-05-14T09:05:42.714Z,16.41
2023-05-14T09:08:09.146Z,15.82
2023-05-14T09:10:35.552Z,17.33
2023-05-14T09:13:02.071Z,16.23
2023-05-14T09:15:28.513Z,16.78
2023-05-14T09:17:55.018Z,18.25
2023-05-14T09:20:21.507Z,18.99
2023-05-14T09:22:48.080Z,19.68
2023-05-14T09:25:14.635Z,16.60
2023-05-14T09:27:41.115Z,18.09
2023-05-14T09:30:16.559Z,15.89
2023-05-14T09:32:43.310Z,16.78
2023-05-14T09:35:11.025Z,16.84
2023-05-14T09:37:37.609Z,17.22
2023-05-14T09:40:07.605Z,17.66
2023-05-14T09:42:33.998Z,17.57
2023-05-14T09:45:00.607Z,17.32
2023-05-14T09:47:27.162Z,17.38
2023-05-14T09:49:53.697Z,17.01
2023-05-14T09:52:20.167Z,16.49
2023-05-14T09:54:46.603Z,17.38
2023-05-14T09:57:13.075Z,18.00
2023-05-14T09:59:39.534Z,18.62
2023-05-14T10:02:05.920Z,17.55
2023-05-14T10:04:32.870Z,18.42
2023-05-14T10:06:59.387Z,18.70
2023-05-14T10:09:25.770Z,17.75
2023-05-14T10:11:52.914Z,18.44
2023-05-14T10:14:29.651Z,18.29
2023-05-14T10:16:56.189Z,18.02
2023-05-14T10:19:23.764Z,17.24
2023-05-14T10:21:57.071Z,19.09
2023-05-14T10:24:23.739Z,18.94
2023-05-14T10:26:50.253Z,17.76
2023-05-14T10:29:16.758Z,17.91
2023-05-14T10:31:52.836Z,17.69
2023-05-14T10:34:32.163Z,19.00
2023-05-14T10:37:02.332Z,17.60
2023-05-14T10:39:58.220Z,17.44
2023-05-14T10:42:28.527Z,16.43
2023-05-14T10:44:55.540Z,18.17
2023-05-14T10:47:22.008Z,19.21
2023-05-14T10:49:48.399Z,20.19
2023-05-14T10:52:16.128Z,20.44
2023-05-14T10:54:46.569Z,18.65
2023-05-14T10:57:13.069Z,18.01
2023-05-14T10:59:41.651Z,17.57
2023-05-14T11:02:18.255Z,17.46
2023-05-14T11:04:50.548Z,16.79
2023-05-14T11:07:17.115Z,17.33
2023-05-14T11:09:43.574Z,17.67
2023-05-14T11:12:10.013Z,17.77
2023-05-14T11:14:36.438Z,17.38
2023-05-14T11:17:02.915Z,18.12
2023-05-14T11:19:29.457Z,18.85
2023-05-14T11:21:55.932Z,18.56
2023-05-14T11:24:22.390Z,17.93
2023-05-14T11:26:48.743Z,17.97
2023-05-14T11:29:15.128Z,17.88
2023-05-14T11:31:41.604Z,16.95
2023-05-14T11:34:08.106Z,17.20
2023-05-14T11:36:36.215Z,17.49
2023-05-14T11:39:02.768Z,17.75
2023-05-14T11:41:29.160Z,18.19
2023-05-14T11:43:55.535Z,17.54
2023-05-14T11:46:22.130Z,18.36
2023-05-14T11:48:48.569Z,17.74
2023-05-14T11:51:15.002Z,17.91
2023-05-14T11:53:41.517Z,17.94
2023-05-14T11:56:09.677Z,17.73
2023-05-14T11:58:36.472Z,18.22
2023-05-14T12:01:02.995Z,18.22
2023-05-14T12:03:30.325Z,17.75
2023-05-14T12:05:57.031Z,18.21
2023-05-14T12:08:25.884Z,18.21
2023-05-14T12:10:55.379Z,17.74
2023-05-14T12:13:22.107Z,17.43
2023-05-14T12:15:48.705Z,17.81
2023-05-14T12:18:23.803Z,17.57
2023-05-14T12:20:51.538Z,17.97
2023-05-14T12:23:27.790Z,18.09
2023-05-14T12:25:54.316Z,17.79
2023-05-14T12:28:20.705Z,17.34
2023-05-14T12:30:47.201Z,17.51
2023-05-14T12:33:13.706Z,17.27
2023-05-14T12:35:40.195Z,17.35
2023-05-14T12:38:06.787Z,17.08
2023-05-14T12:40:33.282Z,17.41
2023-05-14T12:42:59.658Z,17.22
2023-05-14T12:45:26.242Z,17.08
2023-05-14T12:47:52.824Z,16.82
2023-05-14T12:50:19.356Z,16.94
2023-05-14T12:52:45.805Z,16.96
2023-05-14T12:55:12.230Z,17.05
2023-05-14T12:57:39.113Z,16.57
2023-05-14T13:00:06.418Z,16.53
2023-05-14T13:02:33.089Z,16.39
2023-05-14T13:05:08.921Z,16.35
2023-05-14T13:07:35.519Z,16.17
2023-05-14T13:10:02.017Z,15.88
2023-05-14T13:12:28.383Z,15.40
2023-05-14T13:14:54.912Z,15.03
2023-05-14T13:17:21.426Z,14.89
2023-05-14T13:19:47.905Z,14.65
2023-05-14T13:22:14.415Z,14.53
2023-05-14T13:24:40.863Z,14.40
2023-05-14T13:27:07.277Z,14.28
2023-05-14T13:29:33.692Z,14.24
2023-05-14T13:32:00.238Z,13.88
2023-05-14T13:34:26.614Z,14.12
2023-05-14T13:36:53.051Z,14.14
2023-05-14T13:39:19.461Z,14.05
2023-05-14T13:41:45.890Z,14.03
2023-05-14T13:44:12.367Z,14.08
2023-05-14T13:46:38.803Z,13.59
2023-05-14T13:49:05.292Z,13.52
2023-05-14T13:51:31.821Z,12.94
2023-05-14T13:53:58.236Z,12.80
2023-05-14T13:56:24.687Z,12.60
2023-05-14T13:58:51.238Z,12.17
2023-05-14T14:01:17.658Z,12.15
2023-05-14T14:03:44.096Z,11.88
2023-05-14T14:06:10.667Z,11.42
2023-05-14T14:08:37.112Z,11.31
2023-05-14T14:11:03.546Z,11.42
2023-05-14T14:13:29.997Z,11.50
2023-05-14T14:15:56.454Z,11.27
2023-05-14T14:18:22.848Z,11.09
2023-05-14T14:20:49.351Z,10.74
2023-05-14T14:23:15.881Z,10.71
2023-05-14T14:25:42.418Z,10.41
2023-05-14T14:28:08.842Z,10.33
2023-05-14T14:30:35.475Z,10.29
2023-05-14T14:33:01.960Z,10.37
2023-05-14T14:35:28.516Z,10.43
2023-05-14T14:37:54.930Z,10.72
2023-05-14T14:40:21.445Z,10.77
2023-05-14T14:42:48.035Z,10.69
2023-05-14T14:45:15.562Z,10.66
2023-05-14T14:47:43.094Z,10.88
2023-05-14T14:50:09.704Z,10.70
2023-05-14T14:52:36.133Z,10.71
2023-05-14T14:55:02.564Z,10.63
2023-05-14T14:57:28.993Z,10.99
2023-05-14T14:59:55.356Z,10.80
2023-05-14T15:02:21.983Z,10.78
2023-05-14T15:04:48.543Z,10.85
2023-05-14T15:07:15.210Z,11.06
2023-05-14T15:09:41.587Z,11.19
2023-05-14T15:12:08.076Z,11.33
2023-05-14T15:14:34.690Z,11.30
2023-05-14T15:17:01.220Z,11.34
2023-05-14T15:19:28.836Z,11.26
2023-05-14T15:21:55.323Z,11.13
2023-05-14T15:24:21.797Z,10.97
2023-05-14T15:26:48.348Z,10.97
2023-05-14T15:29:14.739Z,11.13
2023-05-14T15:31:41.422Z,11.12
2023-05-14T15:34:08.036Z,11.31
2023-05-14T15:36:34.528Z,11.25
2023-05-14T15:39:01.081Z,11.35
2023-05-14T15:41:27.549Z,11.44
2023-05-14T15:43:54.026Z,11.33
2023-05-14T15:46:20.429Z,11.16
2023-05-14T15:48:46.961Z,11.35
2023-05-14T15:51:13.636Z,11.55
2023-05-14T15:53:40.096Z,11.60
2023-05-14T15:56:06.764Z,11.85
2023-05-14T15:58:33.237Z,11.58
2023-05-14T16:00:59.762Z,11.82
2023-05-14T16:03:26.385Z,12.01
2023-05-14T16:05:52.965Z,11.81
2023-05-14T16:08:19.466Z,11.76
2023-05-14T16:10:45.946Z,11.62
2023-05-14T16:13:12.558Z,11.86
2023-05-14T16:15:39.388Z,11.90
2023-05-14T16:18:06.071Z,11.85
2023-05-14T16:20:32.681Z,11.98
2023-05-14T16:22:59.166Z,12.13
2023-05-14T16:25:25.606Z,12.04
2023-05-14T16:27:52.026Z,11.97
2023-05-14T16:30:18.483Z,11.99
2023-05-14T16:32:45.013Z,12.00
2023-05-14T16:35:11.535Z,11.93
2023-05-14T16:37:38.248Z,12.04
2023-05-14T16:40:04.894Z,11.79
2023-05-14T16:42:31.500Z,11.85
2023-05-14T16:44:57.883Z,11.97
2023-05-14T16:47:24.303Z,12.07
2023-05-14T16:49:50.895Z,11.92
2023-05-14T16:52:17.382Z,11.85
2023-05-14T16:54:43.847Z,12.08
2023-05-14T16:57:10.362Z,12.05
2023-05-14T16:59:36.721Z,12.03
2023-05-14T17:02:03.279Z,12.05
2023-05-14T17:04:30.630Z,12.00
2023-05-14T17:06:57.123Z,12.05
2023-05-14T17:09:23.650Z,12.01
2023-05-14T17:11:50.299Z,11.77
2023-05-14T17:14:16.740Z,11.77
2023-05-14T17:16:45.476Z,11.89
2023-05-14T17:19:12.095Z,11.82
2023-05-14T17:21:38.673Z,11.63
2023-05-14T17:24:05.317Z,11.53
2023-05-14T17:26:31.875Z,11.52
2023-05-14T17:28:58.291Z,11.55
2023-05-14T17:31:24.873Z,11.29
2023-05-14T17:33:51.381Z,11.39
2023-05-14T17:36:17.784Z,11.32
2023-05-14T17:38:44.239Z,11.42
2023-05-14T17:41:10.699Z,11.32
2023-05-14T17:43:37.100Z,11.35
2023-05-14T17:46:03.813Z,11.32
2023-05-14T17:48:30.392Z,11.34
2023-05-14T17:50:56.847Z,11.29
2023-05-14T17:53:23.289Z,11.16
2023-05-14T17:55:49.779Z,11.15
2023-05-14T17:58:16.326Z,11.02
2023-05-14T18:00:42.948Z,11.02
2023-05-14T18:03:09.548Z,10.82
2023-05-14T18:05:36.092Z,10.87
2023-05-14T18:08:02.605Z,10.89
2023-05-14T18:10:29.829Z,10.93
2023-05-14T18:12:56.364Z,10.95
2023-05-14T18:15:22.933Z,10.88
2023-05-14T18:17:49.603Z,10.95
2023-05-14T18:20:16.153Z,10.52
2023-05-14T18:22:42.604Z,10.52
2023-05-14T18:25:09.244Z,10.43
2023-05-14T18:27:35.640Z,10.39
2023-05-14T18:30:02.018Z,10.49
2023-05-14T18:32:28.782Z,10.29
2023-05-14T18:34:55.233Z,10.36
2023-05-14T18:37:21.634Z,10.39
2023-05-14T18:39:48.082Z,10.43
2023-05-14T18:42:14.534Z,10.52
2023-05-14T18:44:41.244Z,10.50
2023-05-14T18:47:07.724Z,10.48
2023-05-14T18:49:34.173Z,10.37
2023-05-14T18:52:00.581Z,10.44
2023-05-14T18:54:27.090Z,10.28
2023-05-14T18:56:53.488Z,10.45
2023-05-14T18:59:19.877Z,10.35
2023-05-14T19:01:46.405Z,10.23
2023-05-14T19:04:12.811Z,10.43
2023-05-14T19:06:39.327Z,10.35
2023-05-14T19:09:05.877Z,10.45
2023-05-14T19:11:32.291Z,10.41
2023-05-14T19:13:58.795Z,10.49
2023-05-14T19:16:25.342Z,10.44
2023-05-14T19:18:51.893Z,10.29
2023-05-14T19:21:18.384Z,10.34
2023-05-14T19:23:44.933Z,10.37
2023-05-14T19:26:11.337Z,10.34
2023-05-14T19:28:37.831Z,10.31
2023-05-14T19:31:04.720Z,10.24
2023-05-14T19:33:31.088Z,10.30
2023-05-14T19:35:57.629Z,10.21
2023-05-14T19:38:24.230Z,10.24
2023-05-14T19:40:50.700Z,10.34
2023-05-14T19:43:17.228Z,10.27
2023-05-14T19:45:43.737Z,10.27
2023-05-14T19:48:10.169Z,10.32
2023-05-14T19:50:36.787Z,10.31
2023-05-14T19:53:03.260Z,10.28
2023-05-14T19:55:29.711Z,10.24
2023-05-14T19:57:56.096Z,10.17
2023-05-14T20:00:22.725Z,10.17
2023-05-14T20:02:49.584Z,10.14
2023-05-14T20:05:16.142Z,10.16
2023-05-14T20:07:42.632Z,10.18
2023-05-14T20:10:09.435Z,10.16
2023-05-14T20:12:35.936Z,10.08
2023-05-14T20:15:02.370Z,10.11
2023-05-14T20:17:28.913Z,10.11
2023-05-14T20:19:55.392Z,10.15
2023-05-14T20:22:21.872Z,10.10
2023-05-14T20:24:48.237Z,10.05
2023-05-14T20:27:14.631Z,10.06
2023-05-14T20:29:41.072Z,10.10
2023-05-14T20:32:07.561Z,10.06
2023-05-14T20:34:34.036Z,10.06
2023-05-14T20:37:00.573Z,10.07
2023-05-14T20:39:26.941Z,10.06
2023-05-14T20:41:53.344Z,10.04
2023-05-14T20:44:20.566Z,10.06
2023-05-14T20:46:47.341Z,9.90
2023-05-14T20:49:13.970Z,9.98
2023-05-14T20:51:40.495Z,9.91
2023-05-14T20:54:07.139Z,9.94
2023-05-14T20:56:33.603Z,9.90
2023-05-14T20:59:00.153Z,9.83
2023-05-14T21:01:26.849Z,9.79
2023-05-14T21:03:53.533Z,9.88
2023-05-14T21:06:20.164Z,9.90
2023-05-14T21:08:46.762Z,9.91
2023-05-14T21:11:13.312Z,9.90
2023-05-14T21:13:39.814Z,9.90
2023-05-14T21:16:06.340Z,9.92
2023-05-14T21:18:32.909Z,9.96
2023-05-14T21:20:59.543Z,9.94
2023-05-14T21:23:26.034Z,9.92
2023-05-14T21:25:52.542Z,9.87
2023-05-14T21:28:19.029Z,9.91
2023-05-14T21:30:45.394Z,9.83
2023-05-14T21:33:12.061Z,9.78
2023-05-14T21:35:38.664Z,9.76
2023-05-14T21:38:05.184Z,9.77
2023-05-14T21:40:31.550Z,9.69
2023-05-14T21:42:58.039Z,9.75
2023-05-14T21:45:24.429Z,9.53
2023-05-14T21:47:50.970Z,9.60
2023-05-14T21:50:17.488Z,9.71
2023-05-14T21:52:43.977Z,9.74
2023-05-14T21:55:10.507Z,9.77
2023-05-14T21:57:37.003Z,9.78
2023-05-14T22:00:03.781Z,9.70
2023-05-14T22:02:30.516Z,9.73
2023-05-14T22:04:56.998Z,9.76
2023-05-14T22:07:23.502Z,9.81
2023-05-14T22:09:50.304Z,9.80
2023-05-14T22:12:16.903Z,9.61
2023-05-14T22:14:43.313Z,9.67
2023-05-14T22:17:09.720Z,9.73
2023-05-14T22:19:36.213Z,9.71
2023-05-14T22:22:02.725Z,9.75
2023-05-14T22:24:29.211Z,9.71
2023-05-14T22:26:55.699Z,9.71
2023-05-14T22:29:22.142Z,9.64
2023-05-14T22:31:48.768Z,9.76
2023-05-14T22:34:15.477Z,9.51
2023-05-14T22:36:41.932Z,9.57
2023-05-14T22:39:08.879Z,9.50
2023-05-14T22:41:36.164Z,9.55
2023-05-14T22:44:02.531Z,9.48
2023-05-14T22:46:29.582Z,9.46
2023-05-14T22:48:56.161Z,9.46
2023-05-14T22:51:22.517Z,9.41
2023-05-14T22:53:49.021Z,9.48
2023-05-14T22:56:15.506Z,9.44
2023-05-14T22:58:41.977Z,9.46
2023-05-14T23:01:08.345Z,9.45
2023-05-14T23:03:34.824Z,9.44
2023-05-14T23:06:01.472Z,9.56
2023-05-14T23:08:27.846Z,9.45
2023-05-14T23:10:54.300Z,9.44
2023-05-14T23:13:20.705Z,9.47
2023-05-14T23:15:47.077Z,9.46
2023-05-14T23:18:13.573Z,9.39
2023-05-14T23:20:40.181Z,9.29
2023-05-14T23:23:06.669Z,9.19
2023-05-14T23:25:33.161Z,9.13
2023-05-14T23:27:59.700Z,9.10
2023-05-14T23:30:26.203Z,9.07
2023-05-14T23:32:52.725Z,9.04
2023-05-14T23:35:19.200Z,9.13
2023-05-14T23:37:45.701Z,9.11
2023-05-14T23:40:12.248Z,9.14
2023-05-14T23:42:38.925Z,9.13
2023-05-14T23:45:05.515Z,9.15
2023-05-14T23:47:32.102Z,9.17
2023-05-14T23:49:58.630Z,9.00
2023-05-14T23:52:25.054Z,9.04
2023-05-14T23:54:51.523Z,9.09
2023-05-14T23:57:17.896Z,9.07
2023-05-14T23:59:44.310Z,9.07
